createdAt,value
2023-02-17T00:01:34.287Z,100606.96
2023-02-17T00:04:02.889Z,100606.79
2023-02-17T00:06:32.417Z,100608.34
2023-02-17T00:09:01.991Z,100606.63
2023-02-17T00:11:30.770Z,100607.16
2023-02-17T00:14:00.558Z,100608.87
2023-02-17T00:16:29.515Z,100607.50
2023-02-17T00:19:02.258Z,100606.16
2023-02-17T00:21:31.852Z,100599.17
2023-02-17T00:24:00.505Z,100597.13
2023-02-17T00:26:29.235Z,100592.35
2023-02-17T00:28:59.278Z,100596.30
2023-02-17T00:31:27.654Z,100591.86
2023-02-17T00:33:56.649Z,100590.67
2023-02-17T00:36:26.238Z,100586.57
2023-02-17T00:38:56.970Z,100586.05
2023-02-17T00:41:29.094Z,100581.95
2023-02-17T00:43:59.662Z,100579.73
2023-02-17T00:46:28.096Z,100577.16
2023-02-17T00:48:56.133Z,100573.58
2023-02-17T00:51:25.514Z,100570.34
2023-02-17T00:53:53.377Z,100573.42
2023-02-17T00:56:21.382Z,100571.20
2023-02-17T00:58:49.277Z,100565.55
2023-02-17T01:01:18.134Z,100568.30
2023-02-17T01:03:46.380Z,100563.85
2023-02-17T01:06:24.329Z,100566.08
2023-02-17T01:08:53.397Z,100566.08
2023-02-17T01:11:28.186Z,100563.34
2023-02-17T01:13:58.956Z,100562.13
2023-02-17T01:16:30.842Z,100554.11
2023-02-17T01:19:00.789Z,100553.58
2023-02-17T01:21:30.233Z,100548.63
2023-02-17T01:24:00.550Z,100546.23
2023-02-17T01:26:31.598Z,100546.22
2023-02-17T01:29:04.122Z,100545.20
2023-02-17T01:31:32.686Z,100541.95
2023-02-17T01:34:03.939Z,100539.90
2023-02-17T01:36:32.769Z,100538.70
2023-02-17T01:39:01.151Z,100531.01
2023-02-17T01:41:29.750Z,100529.99
2023-02-17T01:44:16.746Z,100528.61
2023-02-17T01:46:47.989Z,100525.04
2023-02-17T01:49:38.011Z,100519.73
2023-02-17T01:52:21.274Z,100514.27
2023-02-17T01:54:55.334Z,100510.51
2023-02-17T01:57:27.400Z,100508.11
2023-02-17T01:59:56.154Z,100504.54
2023-02-17T02:02:24.370Z,100508.63
2023-02-17T02:04:54.734Z,100510.02
2023-02-17T02:07:33.289Z,100513.94
2023-02-17T02:10:03.010Z,100514.79
2023-02-17T02:12:35.457Z,100513.77
2023-02-17T02:15:09.383Z,100514.29
2023-02-17T02:18:16.166Z,100510.86
2023-02-17T02:21:07.908Z,100507.27
2023-02-17T02:24:04.860Z,100504.71
2023-02-17T02:27:00.117Z,100499.59
2023-02-17T02:29:57.731Z,100501.80
2023-02-17T02:32:49.690Z,100501.13
2023-02-17T02:35:26.848Z,100497.87
2023-02-17T02:38:09.632Z,100498.73
2023-02-17T02:40:44.684Z,100498.56
2023-02-17T02:43:14.846Z,100495.65
2023-02-17T02:45:43.154Z,100497.00
2023-02-17T02:48:11.238Z,100497.01
2023-02-17T02:50:59.033Z,100500.26
2023-02-17T02:54:07.703Z,100498.54
2023-02-17T02:56:58.126Z,100492.21
2023-02-17T02:59:35.202Z,100485.53
2023-02-17T03:02:17.644Z,100481.77
2023-02-17T03:04:59.477Z,100479.04
2023-02-17T03:07:55.650Z,100478.35
2023-02-17T03:23:43.985Z,100489.63
2023-02-17T03:26:12.028Z,100485.85
2023-02-17T03:28:40.972Z,100482.25
2023-02-17T03:31:09.000Z,100478.14
2023-02-17T03:33:36.980Z,100481.05
2023-02-17T03:36:05.413Z,100482.75
2023-02-17T03:38:33.470Z,100488.21
2023-02-17T03:41:01.321Z,100490.44
2023-02-17T03:43:29.161Z,100503.60
2023-02-17T03:45:57.066Z,100498.96
2023-02-17T03:48:24.929Z,100498.62
2023-02-17T03:50:52.774Z,100500.67
2023-02-17T03:53:20.801Z,100494.68
2023-02-17T03:55:48.592Z,100494.66
2023-02-17T03:58:16.798Z,100492.45
2023-02-17T04:00:44.600Z,100492.44
2023-02-17T04:03:12.441Z,100490.21
2023-02-17T04:05:40.247Z,100496.53
2023-02-17T04:08:08.414Z,100489.87
2023-02-17T04:10:36.223Z,100482.65
2023-02-17T04:13:04.127Z,100476.48
2023-02-17T04:15:32.518Z,100473.05
2023-02-17T04:18:00.323Z,100472.02
2023-02-17T04:20:28.340Z,100473.19
2023-02-17T04:22:56.291Z,100468.23
2023-02-17T04:25:24.339Z,100462.23
2023-02-17T04:27:52.128Z,100450.57
2023-02-17T04:30:22.171Z,100464.10
2023-02-17T04:37:22.061Z,100457.05
2023-02-17T04:39:49.888Z,100458.08
2023-02-17T04:42:17.982Z,100460.31
2023-02-17T04:44:45.896Z,100466.48
2023-02-17T04:47:13.781Z,100472.81
2023-02-17T04:49:41.721Z,100462.70
2023-02-17T04:52:09.592Z,100458.94
2023-02-17T04:54:37.702Z,100451.73
2023-02-17T04:57:05.631Z,100437.01
2023-02-17T04:59:33.588Z,100428.63
2023-02-17T05:02:01.401Z,100430.85
2023-02-17T05:04:29.591Z,100436.15
2023-02-17T05:06:57.360Z,100436.51
2023-02-17T05:09:25.437Z,100441.30
2023-02-17T05:11:53.325Z,100439.43
2023-02-17T05:14:21.336Z,100438.92
2023-02-17T05:16:49.213Z,100436.86
2023-02-17T05:19:17.109Z,100431.19
2023-02-17T05:21:45.008Z,100432.91
2023-02-17T05:24:13.031Z,100433.05
2023-02-17T05:26:40.990Z,100431.17
2023-02-17T05:29:08.897Z,100423.98
2023-02-17T05:31:37.152Z,100419.35
2023-02-17T05:34:05.143Z,100418.66
2023-02-17T05:36:32.928Z,100420.02
2023-02-17T05:39:00.829Z,100422.77
2023-02-17T05:41:28.806Z,100421.23
2023-02-17T05:43:56.731Z,100419.88
2023-02-17T05:46:24.553Z,100411.99
2023-02-17T05:48:52.378Z,100405.99
2023-02-17T05:51:20.243Z,100402.23
2023-02-17T05:58:21.690Z,100408.05
2023-02-17T06:00:49.729Z,100406.88
2023-02-17T06:03:17.641Z,100403.77
2023-02-17T06:05:45.976Z,100406.34
2023-02-17T06:12:48.247Z,100400.34
2023-02-17T06:15:16.208Z,100404.11
2023-02-17T06:22:19.528Z,100408.70
2023-02-17T06:24:47.455Z,100407.52
2023-02-17T06:27:15.354Z,100405.48
2023-02-17T06:29:44.705Z,100401.02
2023-02-17T06:32:12.606Z,100402.02
2023-02-17T06:34:40.370Z,100403.55
2023-02-17T06:37:08.243Z,100401.66
2023-02-17T06:39:36.025Z,100403.19
2023-02-17T06:42:04.099Z,100405.76
2023-02-17T06:44:31.894Z,100405.05
2023-02-17T06:46:59.903Z,100399.71
2023-02-17T06:49:27.889Z,100399.69
2023-02-17T06:51:55.712Z,100402.59
2023-02-17T06:54:23.533Z,100405.82
2023-02-17T06:56:51.379Z,100403.75
2023-02-17T06:59:19.190Z,100388.48
2023-02-17T07:01:49.468Z,100386.56
2023-02-17T07:04:17.710Z,100386.70
2023-02-17T07:06:45.566Z,100390.77
2023-02-17T07:09:14.011Z,100384.40
2023-02-17T07:11:42.832Z,100378.39
2023-02-17T07:14:11.029Z,100379.89
2023-02-17T07:16:39.626Z,100379.31
2023-02-17T07:19:07.526Z,100383.73
2023-02-17T07:21:36.125Z,100378.89
2023-02-17T07:24:04.112Z,100378.15
2023-02-17T07:26:32.027Z,100382.52
2023-02-17T07:29:01.251Z,100379.32
2023-02-17T07:31:29.218Z,100363.40
2023-02-17T07:33:57.482Z,100362.91
2023-02-17T07:36:25.332Z,100364.15
2023-02-17T07:38:53.262Z,100367.31
2023-02-17T07:41:24.712Z,100371.32
2023-02-17T07:43:57.377Z,100375.31
2023-02-17T07:46:26.636Z,100371.79
2023-02-17T07:48:57.866Z,100367.96
2023-02-17T07:51:26.877Z,100363.09
2023-02-17T07:53:55.075Z,100352.95
2023-02-17T07:56:23.544Z,100357.23
2023-02-17T07:58:51.870Z,100361.84
2023-02-17T08:01:25.393Z,100362.02
2023-02-17T08:03:53.728Z,100358.24
2023-02-17T08:06:24.041Z,100355.52
2023-02-17T08:09:11.773Z,100357.45
2023-02-17T08:11:59.341Z,100350.85
2023-02-17T08:14:29.884Z,100346.57
2023-02-17T08:16:59.913Z,100348.80
2023-02-17T08:19:39.487Z,100348.81
2023-02-17T08:22:16.069Z,100354.06
2023-02-17T08:24:45.194Z,100352.50
2023-02-17T08:27:15.294Z,100350.73
2023-02-17T08:29:44.915Z,100344.60
2023-02-17T08:32:14.858Z,100346.24
2023-02-17T08:34:43.422Z,100343.34
2023-02-17T08:37:11.645Z,100337.41
2023-02-17T08:39:39.942Z,100339.64
2023-02-17T08:42:07.934Z,100336.16
2023-02-17T08:44:37.952Z,100328.64
2023-02-17T08:47:10.957Z,100320.46
2023-02-17T08:49:43.031Z,100326.49
2023-02-17T08:52:13.003Z,100320.21
2023-02-17T08:54:43.950Z,100324.48
2023-02-17T08:57:15.961Z,100323.06
2023-02-17T08:59:51.033Z,100324.46
2023-02-17T09:02:22.984Z,100323.05
2023-02-17T09:04:55.015Z,100322.86
2023-02-17T09:07:26.467Z,100320.75
2023-02-17T09:09:58.975Z,100325.59
2023-02-17T09:12:30.980Z,100327.79
2023-02-17T09:15:02.018Z,100327.28
2023-02-17T09:17:34.068Z,100327.67
2023-02-17T09:20:11.216Z,100324.05
2023-02-17T09:22:46.988Z,100322.55
2023-02-17T09:25:19.049Z,100319.45
2023-02-17T09:27:51.021Z,100319.86
2023-02-17T09:30:22.094Z,100315.64
2023-02-17T09:32:54.004Z,100314.71
2023-02-17T09:35:27.013Z,100308.57
2023-02-17T09:37:58.008Z,100301.20
2023-02-17T09:41:05.391Z,100297.70
2023-02-17T09:43:35.513Z,100298.30
2023-02-17T09:52:31.992Z,100290.95
2023-02-17T09:55:06.165Z,100280.08
2023-02-17T09:57:39.630Z,100272.98
2023-02-17T10:00:14.509Z,100268.75
2023-02-17T10:02:55.106Z,100265.99
2023-02-17T10:05:28.154Z,100264.57
2023-02-17T10:08:13.048Z,100262.30
2023-02-17T10:10:56.923Z,100254.52
2023-02-17T10:13:27.722Z,100251.73
2023-02-17T10:16:03.345Z,100247.76
2023-02-17T10:18:39.804Z,100249.36
2023-02-17T10:21:13.317Z,100248.55
2023-02-17T10:23:41.425Z,100243.91
2023-02-17T10:26:35.081Z,100243.90
2023-02-17T10:29:14.650Z,100244.98
2023-02-17T10:31:46.931Z,100248.34
2023-02-17T10:34:37.282Z,100246.33
2023-02-17T10:37:15.122Z,100246.50
2023-02-17T10:39:52.448Z,100246.64
2023-02-17T10:42:30.264Z,100245.95
2023-02-17T10:45:18.905Z,100243.45
2023-02-17T10:47:47.448Z,100239.85
2023-02-17T10:50:22.474Z,100230.87
2023-02-17T10:52:53.462Z,100223.05
2023-02-17T10:55:25.796Z,100217.20
2023-02-17T10:58:20.420Z,100210.80
2023-02-17T11:00:53.881Z,100202.55
2023-02-17T11:03:24.741Z,100198.70
2023-02-17T11:06:01.901Z,100198.88
2023-02-17T11:08:56.945Z,100190.30
2023-02-17T11:11:30.712Z,100187.23
2023-02-17T11:14:20.838Z,100179.27
2023-02-17T11:16:59.345Z,100168.59
2023-02-17T11:19:27.632Z,100161.44
2023-02-17T11:21:58.795Z,100159.48
2023-02-17T11:24:28.362Z,100154.54
2023-02-17T11:27:00.810Z,100151.78
2023-02-17T11:29:30.188Z,100140.92
2023-02-17T11:32:11.238Z,100133.83
2023-02-17T11:34:42.230Z,100124.59
2023-02-17T11:37:13.314Z,100116.79
2023-02-17T11:39:44.169Z,100111.98
2023-02-17T11:42:17.164Z,100111.74
2023-02-17T11:44:45.926Z,100102.55
2023-02-17T11:47:32.604Z,100090.54
2023-02-17T11:50:38.904Z,100088.64
2023-02-17T11:53:08.310Z,100079.69
2023-02-17T11:55:59.665Z,100076.38
2023-02-17T11:58:59.918Z,100071.77
2023-02-17T12:01:52.386Z,100071.95
2023-02-17T12:04:39.095Z,100061.48
2023-02-17T12:07:20.540Z,100052.13
2023-02-17T12:10:12.202Z,100050.52
2023-02-17T12:13:01.584Z,100047.23
2023-02-17T12:15:44.820Z,100043.86
2023-02-17T12:18:34.783Z,100039.19
2023-02-17T12:21:48.774Z,100031.55
2023-02-17T12:24:48.553Z,100018.51
2023-02-17T12:27:51.641Z,100008.80
2023-02-17T12:30:50.792Z,100003.80
2023-02-17T12:33:43.180Z,99994.59
2023-02-17T12:36:14.748Z,99981.35
2023-02-17T12:38:53.403Z,99973.60
2023-02-17T12:41:29.609Z,99967.61
2023-02-17T12:44:02.793Z,99954.14
2023-02-17T12:46:44.298Z,99948.28
2023-02-17T12:49:37.545Z,99946.23
2023-02-17T12:52:19.749Z,99940.02
2023-02-17T12:55:20.930Z,99937.30
2023-02-17T12:57:56.015Z,99940.87
2023-02-17T13:00:30.465Z,99937.45
2023-02-17T13:02:59.752Z,99943.60
2023-02-17T13:05:40.113Z,99936.96
2023-02-17T13:08:22.644Z,99930.98
2023-02-17T13:11:02.030Z,99927.61
2023-02-17T13:13:32.763Z,99928.10
2023-02-17T13:16:13.398Z,99919.73
2023-02-17T13:18:43.918Z,99912.53
2023-02-17T13:21:31.896Z,99908.77
2023-02-17T13:24:13.015Z,99915.67
2023-02-17T13:26:43.076Z,99909.00
2023-02-17T13:29:32.334Z,99902.56
2023-02-17T13:32:05.213Z,99892.91
2023-02-17T13:34:42.507Z,99884.36
2023-02-17T13:37:34.062Z,99882.86
2023-02-17T13:40:29.801Z,99871.84
2023-02-17T13:42:59.551Z,99877.16
2023-02-17T13:45:29.971Z,99877.30
2023-02-17T13:48:01.171Z,99880.14
2023-02-17T13:50:39.581Z,99875.66
2023-02-17T13:53:27.788Z,99873.54
2023-02-17T13:56:02.065Z,99868.40
2023-02-17T13:58:40.056Z,99867.58
2023-02-17T14:01:20.843Z,99868.64
2023-02-17T14:03:52.362Z,99865.11
2023-02-17T14:06:41.073Z,99854.63
2023-02-17T14:09:33.215Z,99853.70
2023-02-17T14:12:04.467Z,99849.73
2023-02-17T14:14:36.153Z,99845.92
2023-02-17T14:17:09.357Z,99839.03
2023-02-17T14:19:46.241Z,99837.69
2023-02-17T14:22:31.100Z,99831.38
2023-02-17T14:25:20.885Z,99828.73
2023-02-17T14:27:51.114Z,99817.77
2023-02-17T14:30:34.005Z,99810.20
2023-02-17T14:33:08.906Z,99806.81
2023-02-17T14:35:39.592Z,99799.95
2023-02-17T14:38:10.505Z,99792.13
2023-02-17T14:40:40.173Z,99788.61
2023-02-17T14:43:08.207Z,99779.20
2023-02-17T14:45:36.156Z,99770.42
2023-02-17T14:48:04.445Z,99762.31
2023-02-17T14:50:34.706Z,99758.54
2023-02-17T14:53:02.542Z,99748.25
2023-02-17T14:55:39.009Z,99746.41
2023-02-17T14:58:06.910Z,99744.35
2023-02-17T15:00:35.146Z,99734.89
2023-02-17T15:03:03.064Z,99728.54
2023-02-17T15:05:32.015Z,99722.00
2023-02-17T15:08:01.602Z,99717.40
2023-02-17T15:10:29.895Z,99710.86
2023-02-17T15:12:58.170Z,99706.52
2023-02-17T15:15:26.058Z,99698.07
2023-02-17T15:17:53.903Z,99692.95
2023-02-17T15:20:21.869Z,99686.59
2023-02-17T15:22:52.986Z,99688.95
2023-02-17T15:25:24.468Z,99684.30
2023-02-17T15:27:52.680Z,99682.31
2023-02-17T15:30:21.587Z,99679.73
2023-02-17T15:32:49.601Z,99675.13
2023-02-17T15:35:23.699Z,99668.22
2023-02-17T15:37:52.215Z,99668.77
2023-02-17T15:40:24.965Z,99663.67
2023-02-17T15:43:01.516Z,99654.29
2023-02-17T15:45:30.962Z,99653.64
2023-02-17T15:48:07.917Z,99649.17
2023-02-17T15:50:35.884Z,99641.24
2023-02-17T15:53:03.768Z,99640.89
2023-02-17T15:55:33.995Z,99629.56
2023-02-17T15:58:05.421Z,99623.78
2023-02-17T16:00:35.528Z,99620.19
2023-02-17T16:03:03.753Z,99615.42
2023-02-17T16:05:33.729Z,99614.04
2023-02-17T16:08:01.534Z,99604.07
2023-02-17T16:10:30.483Z,99595.99
2023-02-17T16:13:01.216Z,99591.52
2023-02-17T16:15:32.105Z,99586.35
2023-02-17T16:18:00.234Z,99586.02
2023-02-17T16:20:34.662Z,99577.60
2023-02-17T16:23:03.623Z,99569.36
2023-02-17T16:25:31.537Z,99569.39
2023-02-17T16:28:00.132Z,99560.96
2023-02-17T16:30:34.714Z,99558.41
2023-02-17T16:33:03.611Z,99552.89
2023-02-17T16:35:33.241Z,99548.91
2023-02-17T16:38:22.749Z,99545.78
2023-02-17T16:40:52.677Z,99535.41
2023-02-17T16:43:23.916Z,99536.12
2023-02-17T16:45:56.986Z,99536.67
2023-02-17T16:48:27.860Z,99535.23
2023-02-17T16:50:56.429Z,99534.05
2023-02-17T16:53:24.847Z,99534.23
2023-02-17T16:55:55.297Z,99528.91
2023-02-17T16:58:27.740Z,99523.77
2023-02-17T17:07:37.192Z,99499.92
2023-02-17T17:10:17.605Z,99494.32
2023-02-17T17:12:47.252Z,99490.33
2023-02-17T17:15:17.669Z,99484.33
2023-02-17T17:17:52.989Z,99480.55
2023-02-17T17:20:32.065Z,99472.98
2023-02-17T17:23:02.056Z,99463.33
2023-02-17T17:25:32.128Z,99456.86
2023-02-17T17:28:00.054Z,99444.16
2023-02-17T17:30:35.659Z,99441.79
2023-02-17T17:33:03.925Z,99446.04
2023-02-17T17:35:32.503Z,99439.65
2023-02-17T17:38:00.458Z,99434.11
2023-02-17T17:40:48.444Z,99429.13
2023-02-17T17:43:21.950Z,99421.88
2023-02-17T17:45:51.313Z,99412.46
2023-02-17T17:48:19.487Z,99405.74
2023-02-17T17:50:49.607Z,99406.05
2023-02-17T17:53:17.501Z,99391.38
2023-02-17T17:55:47.817Z,99381.87
2023-02-17T17:58:17.410Z,99380.71
2023-02-17T18:00:45.630Z,99380.77
2023-02-17T18:03:13.735Z,99382.41
2023-02-17T18:05:58.598Z,99372.85
2023-02-17T18:08:27.776Z,99370.09
2023-02-17T18:10:55.870Z,99371.28
2023-02-17T18:13:25.067Z,99369.39
2023-02-17T18:15:53.833Z,99360.80
2023-02-17T18:18:22.746Z,99356.67
2023-02-17T18:20:51.331Z,99355.16
2023-02-17T18:23:19.215Z,99344.02
2023-02-17T18:25:47.268Z,99339.92
2023-02-17T18:28:15.244Z,99341.80
2023-02-17T18:30:43.546Z,99332.23
2023-02-17T18:33:11.528Z,99326.97
2023-02-17T18:35:40.267Z,99323.77
2023-02-17T18:38:08.160Z,99318.23
2023-02-17T18:40:39.640Z,99313.94
2023-02-17T18:43:09.185Z,99314.08
2023-02-17T18:45:37.000Z,99311.54
2023-02-17T18:48:04.934Z,99306.85
2023-02-17T18:50:33.127Z,99306.73
2023-02-17T18:53:03.620Z,99302.85
2023-02-17T18:55:33.035Z,99295.98
2023-02-17T18:58:00.891Z,99292.05
2023-02-17T19:00:29.049Z,99295.61
2023-02-17T19:02:56.962Z,99290.24
2023-02-17T19:05:28.775Z,99287.14
2023-02-17T19:07:56.586Z,99279.15
2023-02-17T19:10:24.450Z,99277.17
2023-02-17T19:12:52.307Z,99285.84
2023-02-17T19:15:21.129Z,99284.34
2023-02-17T19:17:49.065Z,99271.86
2023-02-17T19:20:17.231Z,99264.56
2023-02-17T19:22:45.385Z,99273.27
2023-02-17T19:25:13.245Z,99268.75
2023-02-17T19:27:42.129Z,99265.09
2023-02-17T19:30:11.381Z,99269.59
2023-02-17T19:32:39.519Z,99269.84
2023-02-17T19:35:09.989Z,99269.98
2023-02-17T19:37:39.337Z,99266.27
2023-02-17T19:40:07.917Z,99260.66
2023-02-17T19:42:36.594Z,99258.22
2023-02-17T19:45:04.993Z,99259.05
2023-02-17T19:47:32.993Z,99254.73
2023-02-17T19:50:00.881Z,99252.95
2023-02-17T19:52:28.817Z,99256.63
2023-02-17T19:54:56.845Z,99252.68
2023-02-17T19:57:24.850Z,99252.69
2023-02-17T19:59:52.799Z,99251.92
2023-02-17T20:02:20.733Z,99258.28
2023-02-17T20:04:48.656Z,99250.36
2023-02-17T20:07:16.500Z,99255.09
2023-02-17T20:09:44.322Z,99254.27
2023-02-17T20:12:12.169Z,99254.42
2023-02-17T20:14:39.994Z,99255.10
2023-02-17T20:17:08.518Z,99244.92
2023-02-17T20:19:38.552Z,99242.19
2023-02-17T20:22:08.088Z,99246.80
2023-02-17T20:24:37.556Z,99248.66
2023-02-17T20:27:05.470Z,99247.39
2023-02-17T20:29:35.592Z,99240.95
2023-02-17T20:32:03.681Z,99239.91
2023-02-17T20:34:39.381Z,99238.36
2023-02-17T20:37:08.995Z,99240.20
2023-02-17T20:39:38.833Z,99230.83
2023-02-17T20:42:07.022Z,99220.35
2023-02-17T20:44:35.554Z,99217.89
2023-02-17T20:47:03.874Z,99208.51
2023-02-17T20:49:31.635Z,99204.14
2023-02-17T20:51:59.517Z,99210.14
2023-02-17T20:54:27.468Z,99210.52
2023-02-17T20:56:57.845Z,99217.28
2023-02-17T20:59:26.005Z,99215.14
2023-02-17T21:01:53.924Z,99215.69
2023-02-17T21:04:21.777Z,99212.34
2023-02-17T21:06:50.868Z,99202.45
2023-02-17T21:09:19.479Z,99196.38
2023-02-17T21:11:47.969Z,99192.61
2023-02-17T21:14:16.359Z,99187.98
2023-02-17T21:16:44.987Z,99180.25
2023-02-17T21:19:13.140Z,99186.46
2023-02-17T21:21:41.143Z,99183.54
2023-02-17T21:24:09.356Z,99178.20
2023-02-17T21:26:37.308Z,99176.58
2023-02-17T21:29:05.540Z,99173.58
2023-02-17T21:31:33.925Z,99175.89
2023-02-17T21:34:02.021Z,99166.68
2023-02-17T21:36:30.332Z,99161.39
2023-02-17T21:38:59.207Z,99163.69
2023-02-17T21:41:27.784Z,99151.77
2023-02-17T21:44:14.570Z,99148.99
2023-02-17T21:46:43.451Z,99148.41
2023-02-17T21:49:12.694Z,99148.80
2023-02-17T21:51:41.396Z,99138.04
2023-02-17T21:54:10.626Z,99138.32
2023-02-17T21:56:38.521Z,99146.46
2023-02-17T21:59:06.881Z,99226.58
2023-02-17T22:01:35.202Z,99211.30
2023-02-17T22:04:03.429Z,99202.70
2023-02-17T22:06:36.505Z,99197.44
2023-02-17T22:09:06.996Z,99207.17
2023-02-17T22:11:38.721Z,99208.44
2023-02-17T22:14:14.712Z,99198.98
2023-02-17T22:16:44.114Z,99196.33
2023-02-17T22:19:15.858Z,99192.71
2023-02-17T22:21:44.714Z,99190.35
2023-02-17T22:24:13.669Z,99193.78
2023-02-17T22:26:42.726Z,99201.81
2023-02-17T22:29:10.566Z,99202.63
2023-02-17T22:31:38.462Z,99198.13
2023-02-17T22:34:10.030Z,99191.26
2023-02-17T22:36:38.596Z,99184.21
2023-02-17T22:39:08.486Z,99184.71
2023-02-17T22:41:36.563Z,99184.43
2023-02-17T22:44:04.594Z,99182.84
2023-02-17T22:46:33.649Z,99178.33
2023-02-17T22:49:01.611Z,99171.02
2023-02-17T22:51:40.080Z,99178.03
2023-02-17T22:54:09.248Z,99173.70
2023-02-17T22:56:37.391Z,99183.68
2023-02-17T22:59:06.118Z,99188.14
2023-02-17T23:01:36.472Z,99188.90
2023-02-17T23:04:05.473Z,99191.80
2023-02-17T23:06:36.297Z,99185.54
2023-02-17T23:09:05.979Z,99183.79
2023-02-17T23:11:55.092Z,99181.74
2023-02-17T23:14:34.514Z,99178.02
2023-02-17T23:17:09.473Z,99188.35
2023-02-17T23:19:38.712Z,99202.02
2023-02-17T23:22:10.513Z,99201.66
2023-02-17T23:24:38.307Z,99206.77
2023-02-17T23:34:44.119Z,99209.89
2023-02-17T23:37:11.925Z,99213.42
2023-02-17T23:39:39.961Z,99212.27
2023-02-17T23:42:07.769Z,99216.59
2023-02-17T23:44:35.692Z,99210.95
2023-02-17T23:47:04.455Z,99228.58
2023-02-17T23:49:32.275Z,99224.90
2023-02-17T23:52:00.606Z,99218.55
2023-02-17T23:54:28.874Z,99229.06
2023-02-17T23:56:56.752Z,99233.48
2023-02-17T23:59:24.488Z,99239.48
